createdAt,value
2024-02-14T00:00:18.142Z,5.98
2024-02-14T00:02:51.493Z,6.03
2024-02-14T00:05:19.245Z,6.03
2024-02-14T00:07:46.682Z,5.99
2024-02-14T00:10:14.239Z,5.94
2024-02-14T00:12:41.810Z,5.81
2024-02-14T00:15:09.925Z,5.62
2024-02-14T00:17:37.998Z,5.34
2024-02-14T00:20:06.086Z,5.30
2024-02-14T00:22:33.617Z,5.20
2024-02-14T00:25:01.207Z,5.00
2024-02-14T00:27:29.395Z,4.90
2024-02-14T00:29:57.882Z,4.71
2024-02-14T00:32:25.981Z,4.73
2024-02-14T00:34:53.683Z,4.69
2024-02-14T00:37:21.490Z,4.66
2024-02-14T00:39:51.483Z,4.59
2024-02-14T00:42:19.538Z,4.48
2024-02-14T00:44:47.000Z,4.56
2024-02-14T00:47:14.748Z,4.44
2024-02-14T00:49:42.359Z,4.35
2024-02-14T00:52:10.654Z,4.41
2024-02-14T00:54:38.757Z,4.42
2024-02-14T00:57:06.646Z,4.45
2024-02-14T00:59:34.207Z,4.56
2024-02-14T01:02:01.796Z,4.71
2024-02-14T01:04:29.459Z,4.66
2024-02-14T01:06:57.189Z,4.61
2024-02-14T01:09:27.013Z,4.61
2024-02-14T01:11:54.653Z,4.54
2024-02-14T01:14:23.587Z,4.62
2024-02-14T01:16:51.312Z,4.78
2024-02-14T01:19:20.618Z,4.83
2024-02-14T01:21:51.193Z,4.75
2024-02-14T01:24:18.859Z,4.87
2024-02-14T01:26:46.895Z,4.99
2024-02-14T01:29:14.463Z,5.07
2024-02-14T01:31:42.076Z,5.03
2024-02-14T01:34:09.621Z,4.99
2024-02-14T01:36:37.174Z,4.99
2024-02-14T01:39:04.680Z,5.00
2024-02-14T01:41:32.128Z,4.80
2024-02-14T01:44:01.023Z,4.66
2024-02-14T01:46:28.549Z,4.51
2024-02-14T01:48:57.405Z,4.42
2024-02-14T01:51:25.623Z,4.27
2024-02-14T01:53:54.337Z,4.47
2024-02-14T01:56:21.853Z,4.64
2024-02-14T01:58:49.281Z,4.48
2024-02-14T02:01:19.072Z,4.41
2024-02-14T02:03:47.175Z,4.31
2024-02-14T02:06:17.029Z,4.41
2024-02-14T02:08:45.522Z,4.20
2024-02-14T02:11:13.020Z,4.06
2024-02-14T02:13:42.179Z,4.00
2024-02-14T02:16:09.773Z,4.04
2024-02-14T02:18:39.010Z,4.24
2024-02-14T02:21:08.617Z,4.45
2024-02-14T02:23:36.685Z,4.55
2024-02-14T02:26:04.223Z,4.69
2024-02-14T02:28:32.238Z,4.37
2024-02-14T02:30:59.685Z,4.20
2024-02-14T02:33:27.942Z,4.38
2024-02-14T02:35:56.152Z,4.52
2024-02-14T02:38:24.485Z,4.58
2024-02-14T02:40:52.055Z,4.55
2024-02-14T02:43:19.977Z,4.27
2024-02-14T02:45:48.224Z,4.34
2024-02-14T02:48:16.167Z,4.42
2024-02-14T02:50:46.045Z,4.31
2024-02-14T02:53:13.788Z,4.20
2024-02-14T02:55:41.332Z,4.25
2024-02-14T02:58:09.201Z,4.44
2024-02-14T03:00:37.120Z,4.28
2024-02-14T03:03:09.760Z,4.08
2024-02-14T03:05:37.677Z,4.01
2024-02-14T03:08:06.445Z,3.83
2024-02-14T03:10:34.270Z,3.58
2024-02-14T03:13:02.049Z,3.65
2024-02-14T03:15:30.223Z,3.54
2024-02-14T03:17:57.939Z,3.55
2024-02-14T03:20:25.966Z,3.56
2024-02-14T03:22:55.255Z,3.34
2024-02-14T03:25:22.685Z,3.25
2024-02-14T03:27:54.416Z,3.05
2024-02-14T03:30:23.634Z,2.91
2024-02-14T03:32:51.823Z,2.97
2024-02-14T03:35:21.338Z,3.14
2024-02-14T03:37:50.103Z,3.36
2024-02-14T03:40:18.150Z,3.55
2024-02-14T03:42:45.854Z,3.72
2024-02-14T03:45:14.413Z,3.70
2024-02-14T03:47:44.208Z,3.77
2024-02-14T03:50:12.925Z,3.65
2024-02-14T03:52:40.561Z,3.34
2024-02-14T03:55:10.587Z,3.39
2024-02-14T03:57:40.858Z,3.00
2024-02-14T04:00:10.720Z,2.91
2024-02-14T04:02:42.020Z,3.00
2024-02-14T04:05:10.840Z,2.87
2024-02-14T04:07:39.497Z,2.87
2024-02-14T04:10:08.610Z,2.79
2024-02-14T04:12:37.072Z,2.79
2024-02-14T04:15:05.228Z,2.80
2024-02-14T04:17:33.393Z,2.90
2024-02-14T04:20:01.647Z,2.97
2024-02-14T04:22:30.021Z,3.12
2024-02-14T04:24:58.186Z,3.27
2024-02-14T04:27:26.620Z,3.35
2024-02-14T04:29:54.524Z,3.48
2024-02-14T04:32:26.220Z,3.52
2024-02-14T04:34:54.794Z,3.43
2024-02-14T04:37:22.794Z,3.40
2024-02-14T04:39:50.644Z,3.42
2024-02-14T04:42:18.746Z,3.45
2024-02-14T04:44:47.912Z,3.48
2024-02-14T04:47:17.836Z,3.54
2024-02-14T04:49:47.153Z,3.59
2024-02-14T04:52:15.215Z,3.27
2024-02-14T04:54:43.344Z,3.08
2024-02-14T04:57:11.398Z,3.18
2024-02-14T04:59:39.775Z,3.32
2024-02-14T05:02:08.254Z,3.48
2024-02-14T05:04:39.258Z,3.31
2024-02-14T05:07:07.447Z,3.17
2024-02-14T05:09:35.170Z,2.76
2024-02-14T05:12:05.247Z,2.91
2024-02-14T05:14:33.642Z,2.90
2024-02-14T05:17:03.112Z,2.67
2024-02-14T05:19:31.441Z,2.64
2024-02-14T05:21:59.322Z,2.64
2024-02-14T05:24:28.807Z,2.76
2024-02-14T05:26:56.818Z,3.07
2024-02-14T05:29:24.322Z,3.04
2024-02-14T05:31:53.694Z,2.91
2024-02-14T05:34:21.430Z,2.98
2024-02-14T05:36:49.399Z,3.04
2024-02-14T05:39:17.892Z,2.83
2024-02-14T05:41:45.633Z,2.80
2024-02-14T05:44:13.354Z,2.83
2024-02-14T05:46:40.810Z,2.90
2024-02-14T05:49:09.444Z,2.84
2024-02-14T05:51:37.762Z,3.11
2024-02-14T05:54:05.847Z,3.00
2024-02-14T05:56:34.709Z,3.08
2024-02-14T06:01:31.035Z,2.98
2024-02-14T06:03:59.498Z,3.04
2024-02-14T06:06:27.370Z,3.05
2024-02-14T06:08:57.850Z,3.03
2024-02-14T06:11:27.745Z,3.12
2024-02-14T06:14:00.735Z,3.05
2024-02-14T06:17:20.033Z,3.04
2024-02-14T06:21:02.984Z,3.04
2024-02-14T06:24:03.941Z,3.12
2024-02-14T06:26:33.650Z,3.15
2024-02-14T06:30:17.501Z,3.43
2024-02-14T06:33:42.381Z,3.79
2024-02-14T06:39:44.550Z,4.79
2024-02-14T06:42:29.384Z,5.45
2024-02-14T06:45:02.528Z,5.20
2024-02-14T06:47:38.350Z,5.37
2024-02-14T06:50:14.960Z,5.65
2024-02-14T06:53:23.878Z,5.65
2024-02-14T06:55:55.784Z,5.79
2024-02-14T07:01:15.114Z,5.98
2024-02-14T07:04:00.413Z,5.82
2024-02-14T07:06:37.283Z,6.03
2024-02-14T07:17:22.119Z,5.45
2024-02-14T07:20:37.680Z,6.37
2024-02-14T07:23:56.505Z,6.67
2024-02-14T07:26:50.474Z,6.64
2024-02-14T07:33:46.209Z,7.52
2024-02-14T07:40:01.054Z,9.31
2024-02-14T07:48:43.960Z,10.78
2024-02-14T07:51:36.214Z,11.31
2024-02-14T07:54:42.299Z,11.31
2024-02-14T07:57:13.134Z,11.63
2024-02-14T07:59:56.100Z,11.60
2024-02-14T08:05:45.490Z,12.30
2024-02-14T08:08:22.361Z,12.24
2024-02-14T08:11:01.887Z,12.39
2024-02-14T08:13:54.414Z,12.81
2024-02-14T08:16:52.826Z,13.73
2024-02-14T08:19:28.858Z,13.94
2024-02-14T08:22:30.941Z,13.73
2024-02-14T08:25:12.193Z,13.04
2024-02-14T08:27:44.073Z,11.33
2024-02-14T08:30:25.525Z,10.03
2024-02-14T08:32:57.556Z,9.28
2024-02-14T08:35:36.954Z,9.00
2024-02-14T08:38:23.925Z,8.88
2024-02-14T08:41:01.328Z,8.94
2024-02-14T08:43:38.168Z,8.96
2024-02-14T08:46:19.160Z,9.00
2024-02-14T08:48:56.924Z,8.93
2024-02-14T08:51:45.581Z,8.62
2024-02-14T08:54:17.731Z,8.76
2024-02-14T08:57:07.043Z,8.67
2024-02-14T08:59:39.464Z,8.87
2024-02-14T09:05:39.024Z,8.97
2024-02-14T09:08:07.681Z,9.12
2024-02-14T09:10:38.760Z,9.05
2024-02-14T09:13:09.093Z,9.24
2024-02-14T09:16:03.029Z,9.75
2024-02-14T09:18:33.606Z,9.89
2024-02-14T09:21:08.588Z,9.86
2024-02-14T09:24:18.271Z,9.68
2024-02-14T09:26:36.655Z,9.86
2024-02-14T09:29:08.730Z,10.14
2024-02-14T09:31:51.264Z,10.00
2024-02-14T09:34:21.117Z,10.09
2024-02-14T09:36:55.942Z,10.36
2024-02-14T09:39:24.695Z,10.31
2024-02-14T09:41:55.815Z,10.16
2024-02-14T09:44:24.924Z,10.20
2024-02-14T09:46:56.779Z,10.41
2024-02-14T09:49:25.602Z,10.54
2024-02-14T09:51:58.460Z,10.92
2024-02-14T09:54:28.468Z,10.79
2024-02-14T09:57:01.449Z,10.78
2024-02-14T09:59:43.058Z,10.80
2024-02-14T10:02:11.783Z,10.64
2024-02-14T10:04:40.511Z,10.52
2024-02-14T10:07:10.443Z,10.64
2024-02-14T10:09:58.074Z,10.67
2024-02-14T10:12:31.713Z,11.00
2024-02-14T10:15:01.088Z,10.85
2024-02-14T10:17:28.866Z,11.03
2024-02-14T10:19:59.836Z,10.95
2024-02-14T10:22:40.114Z,11.27
2024-02-14T10:25:12.509Z,11.29
2024-02-14T10:27:40.228Z,11.31
2024-02-14T10:30:17.951Z,11.22
2024-02-14T10:32:49.276Z,11.27
2024-02-14T10:35:20.736Z,11.47
2024-02-14T10:37:48.677Z,11.58
2024-02-14T10:40:16.264Z,11.47
2024-02-14T10:42:44.099Z,11.56
2024-02-14T10:45:13.024Z,11.37
2024-02-14T10:47:42.007Z,11.30
2024-02-14T10:50:16.481Z,11.41
2024-02-14T10:56:23.549Z,11.68
2024-02-14T10:58:53.864Z,12.02
2024-02-14T11:01:22.546Z,12.04
2024-02-14T11:03:51.259Z,11.98
2024-02-14T11:06:19.700Z,11.85
2024-02-14T11:09:15.246Z,11.44
2024-02-14T11:11:45.245Z,11.16
2024-02-14T11:14:33.105Z,11.33
2024-02-14T11:17:03.381Z,11.23
2024-02-14T11:19:38.470Z,11.13
2024-02-14T11:22:19.573Z,11.29
2024-02-14T11:24:47.744Z,11.44
2024-02-14T11:27:29.933Z,11.79
2024-02-14T11:30:02.662Z,12.18
2024-02-14T11:32:30.381Z,12.26
2024-02-14T11:34:58.783Z,12.21
2024-02-14T11:37:31.630Z,12.24
2024-02-14T11:39:59.685Z,12.12
2024-02-14T11:42:36.451Z,12.22
2024-02-14T11:51:46.489Z,12.36
2024-02-14T11:54:25.984Z,12.33
2024-02-14T11:56:54.329Z,12.43
2024-02-14T11:59:58.861Z,12.32
2024-02-14T12:02:37.130Z,12.36
2024-02-14T12:05:14.234Z,12.61
2024-02-14T12:07:47.883Z,12.63
2024-02-14T12:10:27.874Z,12.45
2024-02-14T12:13:23.706Z,12.64
2024-02-14T12:15:56.384Z,12.73
2024-02-14T12:18:27.513Z,12.76
2024-02-14T12:21:05.094Z,12.81
2024-02-14T12:23:56.926Z,12.88
2024-02-14T12:26:41.699Z,12.94
2024-02-14T12:29:19.209Z,12.91
2024-02-14T12:31:53.062Z,12.67
2024-02-14T12:34:25.734Z,12.85
2024-02-14T12:36:54.652Z,12.94
2024-02-14T12:39:22.281Z,13.08
2024-02-14T12:41:51.732Z,13.14
2024-02-14T12:44:20.113Z,13.41
2024-02-14T12:47:07.643Z,13.14
2024-02-14T12:49:47.837Z,13.00
2024-02-14T12:55:10.833Z,13.01
2024-02-14T12:57:38.672Z,13.11
2024-02-14T13:00:10.342Z,13.05
2024-02-14T13:02:39.870Z,13.16
2024-02-14T13:05:08.407Z,13.61
2024-02-14T13:07:36.096Z,13.94
2024-02-14T13:13:23.358Z,13.21
2024-02-14T13:15:51.592Z,13.18
2024-02-14T13:18:24.038Z,13.11
2024-02-14T13:20:58.850Z,13.38
2024-02-14T13:23:29.770Z,13.36
2024-02-14T13:25:57.465Z,13.16
2024-02-14T13:28:24.967Z,13.00
2024-02-14T13:30:55.308Z,12.81
2024-02-14T13:33:24.719Z,12.87
2024-02-14T13:35:56.139Z,12.98
2024-02-14T13:38:23.739Z,13.00
2024-02-14T13:40:51.257Z,12.91
2024-02-14T13:43:19.280Z,12.88
2024-02-14T13:45:49.198Z,13.11
2024-02-14T13:48:17.660Z,13.21
2024-02-14T13:50:45.479Z,13.12
2024-02-14T13:53:13.125Z,13.18
2024-02-14T13:55:41.390Z,13.43
2024-02-14T13:58:15.823Z,13.52
2024-02-14T14:00:44.112Z,13.24
2024-02-14T14:03:12.088Z,13.26
2024-02-14T14:05:39.877Z,13.24
2024-02-14T14:08:07.633Z,13.26
2024-02-14T14:10:35.278Z,13.08
2024-02-14T14:13:02.746Z,13.11
2024-02-14T14:18:14.987Z,13.05
2024-02-14T14:20:43.017Z,13.14
2024-02-14T14:23:10.709Z,13.07
2024-02-14T14:25:39.001Z,12.98
2024-02-14T14:28:08.646Z,12.91
2024-02-14T14:30:37.348Z,12.81
2024-02-14T14:33:05.909Z,12.83
2024-02-14T14:35:35.021Z,12.93
2024-02-14T14:38:04.342Z,12.94
2024-02-14T14:40:32.536Z,12.91
2024-02-14T14:43:00.115Z,12.64
2024-02-14T14:45:29.367Z,12.73
2024-02-14T14:47:57.717Z,12.70
2024-02-14T14:50:26.724Z,12.50
2024-02-14T14:52:54.760Z,12.66
2024-02-14T14:55:22.693Z,12.49
2024-02-14T14:57:50.403Z,12.53
2024-02-14T15:00:19.066Z,12.46
2024-02-14T15:02:49.331Z,12.56
2024-02-14T15:05:17.572Z,12.56
2024-02-14T15:07:45.096Z,12.53
2024-02-14T15:10:13.818Z,12.47
2024-02-14T15:12:41.728Z,12.66
2024-02-14T15:15:10.729Z,12.70
2024-02-14T15:17:38.934Z,12.73
2024-02-14T15:20:07.997Z,12.46
2024-02-14T15:22:35.734Z,12.36
2024-02-14T15:25:03.473Z,12.26
2024-02-14T15:27:32.773Z,12.26
2024-02-14T15:30:19.075Z,12.40
2024-02-14T15:33:08.195Z,12.32
2024-02-14T15:35:36.261Z,12.29
2024-02-14T15:38:04.705Z,12.46
2024-02-14T15:40:35.008Z,12.39
2024-02-14T15:43:04.872Z,12.32
2024-02-14T15:45:32.448Z,12.37
2024-02-14T15:48:02.427Z,12.28
2024-02-14T15:50:30.100Z,12.15
2024-02-14T15:52:57.610Z,12.12
2024-02-14T15:55:25.135Z,11.89
2024-02-14T15:57:52.703Z,11.88
2024-02-14T16:00:20.691Z,11.78
2024-02-14T16:02:48.809Z,11.73
2024-02-14T16:05:17.001Z,11.78
2024-02-14T16:07:44.645Z,11.84
2024-02-14T16:10:12.290Z,11.75
2024-02-14T16:12:41.307Z,11.58
2024-02-14T16:15:09.349Z,11.61
2024-02-14T16:17:37.290Z,11.73
2024-02-14T16:20:09.418Z,11.63
2024-02-14T16:22:37.090Z,11.50
2024-02-14T16:25:05.007Z,11.64
2024-02-14T16:27:32.552Z,11.60
2024-02-14T16:30:01.464Z,11.60
2024-02-14T16:32:29.218Z,11.60
2024-02-14T16:34:56.734Z,11.57
2024-02-14T16:37:24.305Z,11.54
2024-02-14T16:39:51.932Z,11.58
2024-02-14T16:42:19.677Z,11.56
2024-02-14T16:44:47.430Z,11.50
2024-02-14T16:47:15.104Z,11.68
2024-02-14T16:49:42.791Z,11.79
2024-02-14T16:52:10.571Z,11.75
2024-02-14T16:54:38.395Z,11.71
2024-02-14T16:57:16.021Z,11.44
2024-02-14T16:59:48.224Z,11.43
2024-02-14T17:02:16.243Z,11.20
2024-02-14T17:04:44.303Z,11.26
2024-02-14T17:07:13.006Z,11.12
2024-02-14T17:09:41.006Z,11.12
2024-02-14T17:12:10.045Z,11.05
2024-02-14T17:14:41.308Z,11.12
2024-02-14T17:17:10.931Z,11.16
2024-02-14T17:19:39.148Z,11.07
2024-02-14T17:22:14.639Z,11.09
2024-02-14T17:24:49.167Z,11.09
2024-02-14T17:27:17.508Z,11.15
2024-02-14T17:29:45.362Z,11.06
2024-02-14T17:32:23.203Z,10.95
2024-02-14T17:34:58.611Z,10.96
2024-02-14T17:37:26.375Z,10.96
2024-02-14T17:39:53.850Z,10.93
2024-02-14T17:42:21.552Z,10.86
2024-02-14T17:44:49.101Z,10.98
2024-02-14T17:47:20.864Z,10.78
2024-02-14T17:50:09.344Z,10.80
2024-02-14T17:52:38.957Z,10.71
2024-02-14T17:55:07.157Z,10.69
2024-02-14T17:57:34.794Z,10.80
2024-02-14T18:00:02.941Z,10.69
2024-02-14T18:02:40.038Z,10.82
2024-02-14T18:05:08.751Z,10.72
2024-02-14T18:07:36.862Z,10.64
2024-02-14T18:10:04.789Z,10.67
2024-02-14T18:12:32.427Z,10.59
2024-02-14T18:15:00.023Z,10.51
2024-02-14T18:17:27.586Z,10.59
2024-02-14T18:19:55.368Z,10.62
2024-02-14T18:22:22.922Z,10.48
2024-02-14T18:24:50.670Z,10.37
2024-02-14T18:27:18.280Z,10.31
2024-02-14T18:29:45.884Z,10.38
2024-02-14T18:32:13.858Z,10.41
2024-02-14T18:34:41.522Z,10.49
2024-02-14T18:37:09.710Z,10.55
2024-02-14T18:39:38.844Z,10.40
2024-02-14T18:42:06.442Z,10.10
2024-02-14T18:44:34.153Z,10.09
2024-02-14T18:47:01.687Z,10.09
2024-02-14T18:49:29.570Z,10.14
2024-02-14T18:51:57.224Z,10.09
2024-02-14T18:54:26.160Z,10.13
2024-02-14T18:56:53.666Z,10.06
2024-02-14T18:59:21.380Z,10.04
2024-02-14T19:01:48.897Z,10.06
2024-02-14T19:04:16.512Z,10.11
2024-02-14T19:06:44.281Z,10.21
2024-02-14T19:09:13.316Z,10.14
2024-02-14T19:11:40.932Z,9.93
2024-02-14T19:14:08.483Z,9.75
2024-02-14T19:16:36.064Z,9.82
2024-02-14T19:19:03.782Z,9.91
2024-02-14T19:21:32.806Z,9.91
2024-02-14T19:24:00.464Z,10.16
2024-02-14T19:26:28.139Z,10.14
2024-02-14T19:28:55.684Z,10.01
2024-02-14T19:31:23.299Z,9.96
2024-02-14T19:33:51.267Z,9.93
2024-02-14T19:36:18.986Z,9.99
2024-02-14T19:38:46.714Z,9.90
2024-02-14T19:41:14.267Z,9.90
2024-02-14T19:43:41.754Z,9.90
2024-02-14T19:46:10.810Z,9.93
2024-02-14T19:48:39.092Z,9.80
2024-02-14T19:51:07.456Z,9.89
2024-02-14T19:53:36.492Z,9.94
2024-02-14T19:56:04.977Z,9.89
2024-02-14T19:58:32.670Z,9.85
2024-02-14T20:01:00.532Z,9.70
2024-02-14T20:03:28.509Z,9.61
2024-02-14T20:05:56.038Z,9.65
2024-02-14T20:08:27.077Z,9.69
2024-02-14T20:10:57.012Z,9.70
2024-02-14T20:13:24.861Z,9.65
2024-02-14T20:15:53.181Z,9.43
2024-02-14T20:18:20.929Z,9.28
2024-02-14T20:20:48.832Z,9.41
2024-02-14T20:23:16.559Z,9.48
2024-02-14T20:25:44.078Z,9.62
2024-02-14T20:28:11.789Z,9.62
2024-02-14T20:30:39.685Z,9.70
2024-02-14T20:33:07.554Z,9.53
2024-02-14T20:35:37.016Z,9.69
2024-02-14T20:38:11.002Z,9.70
2024-02-14T20:40:39.374Z,9.75
2024-02-14T20:43:07.152Z,9.52
2024-02-14T20:45:35.762Z,9.69
2024-02-14T20:48:04.034Z,9.76
2024-02-14T20:50:31.856Z,9.66
2024-02-14T20:52:59.435Z,9.35
2024-02-14T20:55:27.094Z,9.25
2024-02-14T20:57:55.629Z,9.31
2024-02-14T21:00:23.882Z,9.46
2024-02-14T21:02:51.916Z,9.66
2024-02-14T21:05:19.593Z,9.38
2024-02-14T21:07:47.578Z,9.18
2024-02-14T21:10:17.430Z,9.14
2024-02-14T21:12:46.095Z,9.39
2024-02-14T21:15:13.772Z,9.32
2024-02-14T21:17:41.453Z,9.08
2024-02-14T21:20:09.641Z,9.12
2024-02-14T21:22:38.047Z,9.31
2024-02-14T21:25:05.752Z,9.49
2024-02-14T21:27:33.667Z,9.59
2024-02-14T21:30:01.257Z,9.66
2024-02-14T21:32:28.961Z,9.68
2024-02-14T21:34:56.576Z,9.53
2024-02-14T21:37:24.161Z,9.45
2024-02-14T21:39:51.680Z,9.53
2024-02-14T21:42:19.750Z,9.49
2024-02-14T21:44:47.664Z,9.51
2024-02-14T21:47:17.367Z,9.46
2024-02-14T21:49:46.529Z,9.39
2024-02-14T21:52:14.153Z,9.38
2024-02-14T21:54:41.647Z,9.42
2024-02-14T21:57:09.329Z,9.28
2024-02-14T21:59:36.838Z,9.34
2024-02-14T22:02:04.512Z,9.38
2024-02-14T22:04:32.573Z,9.41
2024-02-14T22:07:02.512Z,9.35
2024-02-14T22:09:30.908Z,9.10
2024-02-14T22:11:59.581Z,8.87
2024-02-14T22:14:27.402Z,8.80
2024-02-14T22:16:55.611Z,8.63
2024-02-14T22:19:23.356Z,8.59
2024-02-14T22:21:51.219Z,8.74
2024-02-14T22:24:18.897Z,8.54
2024-02-14T22:26:46.960Z,8.38
2024-02-14T22:29:14.584Z,8.35
2024-02-14T22:31:42.038Z,8.28
2024-02-14T22:34:11.694Z,8.11
2024-02-14T22:36:39.280Z,8.12
2024-02-14T22:39:08.443Z,8.16
2024-02-14T22:41:38.498Z,8.29
2024-02-14T22:44:06.413Z,8.20
2024-02-14T22:46:38.250Z,8.25
2024-02-14T22:49:06.217Z,8.32
2024-02-14T22:51:34.621Z,8.15
2024-02-14T22:54:03.385Z,8.25
2024-02-14T22:56:31.081Z,8.26
2024-02-14T22:58:58.572Z,8.29
2024-02-14T23:01:26.035Z,8.25
2024-02-14T23:03:53.713Z,7.95
2024-02-14T23:06:22.834Z,7.87
2024-02-14T23:08:50.561Z,7.95
2024-02-14T23:11:18.236Z,8.08
2024-02-14T23:13:45.842Z,8.15
2024-02-14T23:16:13.813Z,8.04
2024-02-14T23:18:41.962Z,8.04
2024-02-14T23:21:09.640Z,7.81
2024-02-14T23:23:37.259Z,7.74
2024-02-14T23:26:04.881Z,7.84
2024-02-14T23:28:32.529Z,7.64
2024-02-14T23:31:01.401Z,7.46
2024-02-14T23:33:29.118Z,7.32
2024-02-14T23:35:57.437Z,7.43
2024-02-14T23:38:24.989Z,7.30
2024-02-14T23:40:52.491Z,7.20
2024-02-14T23:43:20.058Z,7.13
2024-02-14T23:45:47.496Z,7.27
2024-02-14T23:48:15.193Z,7.34
2024-02-14T23:50:42.923Z,7.39
2024-02-14T23:53:10.612Z,7.39
2024-02-14T23:55:38.076Z,7.43
2024-02-14T23:58:05.621Z,7.30
